createdAt,value
2018-02-23T00:02:18.583Z,95199.91
2018-02-23T00:07:23.867Z,95204.23
2018-02-23T00:09:53.021Z,95199.13
2018-02-23T00:12:22.184Z,95195.34
2018-02-23T00:14:51.387Z,95205.73
2018-02-23T00:17:20.542Z,95204.86
2018-02-23T00:19:50.795Z,95209.05
2018-02-23T00:22:20.040Z,95206.02
2018-02-23T00:24:49.215Z,95201.93
2018-02-23T00:27:18.381Z,95206.70
2018-02-23T00:29:47.698Z,95206.98
2018-02-23T00:32:16.854Z,95200.94
2018-02-23T00:34:45.999Z,95199.18
2018-02-23T00:37:15.159Z,95194.50
2018-02-23T00:39:44.306Z,95197.73
2018-02-23T00:42:13.479Z,95194.23
2018-02-23T00:44:47.741Z,95195.93
2018-02-23T00:47:16.944Z,95195.73
2018-02-23T00:49:46.159Z,95201.36
2018-02-23T00:52:15.311Z,95200.34
2018-02-23T00:54:44.466Z,95200.00
2018-02-23T00:57:13.609Z,95201.48
2018-02-23T00:59:42.787Z,95206.19
2018-02-23T01:02:11.952Z,95208.01
2018-02-23T01:04:41.155Z,95204.64
2018-02-23T01:07:10.311Z,95196.14
2018-02-23T01:09:39.500Z,95194.84
2018-02-23T01:12:08.698Z,95191.75
2018-02-23T01:14:37.868Z,95189.64
2018-02-23T01:17:07.048Z,95196.70
2018-02-23T01:19:36.213Z,95197.34
2018-02-23T01:22:05.401Z,95196.77
2018-02-23T01:24:34.582Z,95195.34
2018-02-23T01:29:39.049Z,95188.91
2018-02-23T01:32:08.212Z,95188.86
2018-02-23T01:34:37.426Z,95187.61
2018-02-23T01:39:41.860Z,95180.52
2018-02-23T01:42:11.063Z,95176.16
2018-02-23T01:44:40.272Z,95178.83
2018-02-23T01:47:10.023Z,95174.27
2018-02-23T01:49:39.166Z,95174.33
2018-02-23T01:52:08.352Z,95176.45
2018-02-23T01:54:37.566Z,95167.84
2018-02-23T01:57:06.731Z,95165.08
2018-02-23T01:59:35.903Z,95168.55
2018-02-23T02:02:05.130Z,95164.84
2018-02-23T02:07:10.012Z,95156.02
2018-02-23T02:09:39.175Z,95162.88
2018-02-23T02:12:08.325Z,95160.14
2018-02-23T02:14:37.491Z,95157.59
2018-02-23T02:17:06.647Z,95161.94
2018-02-23T02:19:35.889Z,95157.66
2018-02-23T02:22:05.023Z,95151.75
2018-02-23T02:24:34.195Z,95148.73
2018-02-23T02:27:03.375Z,95146.87
2018-02-23T02:29:32.584Z,95144.77
2018-02-23T02:32:01.749Z,95150.16
2018-02-23T02:34:31.000Z,95137.41
2018-02-23T02:37:02.216Z,95135.83
2018-02-23T02:39:31.363Z,95139.97
2018-02-23T02:42:00.561Z,95132.81
2018-02-23T02:44:29.730Z,95138.30
2018-02-23T02:46:58.907Z,95137.98
2018-02-23T02:49:30.596Z,95138.17
2018-02-23T02:51:59.749Z,95136.34
2018-02-23T02:54:28.997Z,95136.88
2018-02-23T02:57:01.516Z,95132.83
2018-02-23T02:59:30.676Z,95134.52
2018-02-23T03:01:59.839Z,95134.98
2018-02-23T03:04:29.047Z,95132.43
2018-02-23T03:06:58.250Z,95137.08
2018-02-23T03:09:27.419Z,95136.06
2018-02-23T03:11:56.964Z,95131.60
2018-02-23T03:14:26.159Z,95132.43
2018-02-23T03:16:55.322Z,95127.52
2018-02-23T03:19:24.464Z,95132.30
2018-02-23T03:21:53.627Z,95130.34
2018-02-23T03:24:23.842Z,95128.63
2018-02-23T03:26:53.041Z,95132.66
2018-02-23T03:29:23.316Z,95127.44
2018-02-23T03:31:52.446Z,95125.86
2018-02-23T03:34:21.620Z,95127.56
2018-02-23T03:36:50.762Z,95122.39
2018-02-23T03:39:19.928Z,95127.05
2018-02-23T03:41:49.094Z,95126.31
2018-02-23T03:49:31.611Z,95124.42
2018-02-23T03:52:02.140Z,95121.30
2018-02-23T03:54:31.308Z,95123.71
2018-02-23T03:57:03.595Z,95125.95
2018-02-23T03:59:32.772Z,95126.61
2018-02-23T04:02:02.117Z,95121.34
2018-02-23T04:04:31.299Z,95120.94
2018-02-23T04:07:00.496Z,95114.86
2018-02-23T04:09:29.669Z,95110.23
2018-02-23T04:11:58.852Z,95107.64
2018-02-23T04:14:28.056Z,95107.80
2018-02-23T04:16:57.219Z,95112.38
2018-02-23T04:19:28.766Z,95111.84
2018-02-23T04:21:57.908Z,95112.11
2018-02-23T04:24:27.190Z,95119.01
2018-02-23T04:26:56.362Z,95117.30
2018-02-23T04:29:25.548Z,95116.63
2018-02-23T04:31:54.713Z,95121.30
2018-02-23T04:34:23.896Z,95122.99
2018-02-23T04:36:53.975Z,95125.16
2018-02-23T04:39:23.194Z,95124.56
2018-02-23T04:41:52.393Z,95127.98
2018-02-23T04:44:21.602Z,95136.14
2018-02-23T04:46:50.759Z,95125.09
2018-02-23T04:49:19.931Z,95129.38
2018-02-23T04:51:49.082Z,95134.22
2018-02-23T04:54:24.808Z,95139.00
2018-02-23T04:56:54.035Z,95134.09
2018-02-23T04:59:23.207Z,95132.04
2018-02-23T05:01:52.460Z,95138.28
2018-02-23T05:04:21.655Z,95135.38
2018-02-23T05:06:50.847Z,95135.20
2018-02-23T05:09:20.092Z,95129.95
2018-02-23T05:11:49.407Z,95133.97
2018-02-23T05:14:19.644Z,95130.55
2018-02-23T05:16:48.849Z,95131.11
2018-02-23T05:19:18.002Z,95131.92
2018-02-23T05:21:47.235Z,95136.56
2018-02-23T05:26:53.654Z,95131.53
2018-02-23T05:29:22.820Z,95133.28
2018-02-23T05:31:52.003Z,95139.96
2018-02-23T05:34:21.192Z,95127.38
2018-02-23T05:36:50.358Z,95130.83
2018-02-23T05:39:19.530Z,95127.99
2018-02-23T05:41:49.472Z,95131.08
2018-02-23T05:44:18.640Z,95122.21
2018-02-23T05:46:47.812Z,95124.30
2018-02-23T05:51:52.162Z,95125.00
2018-02-23T05:56:59.540Z,95135.98
2018-02-23T05:59:28.728Z,95142.07
2018-02-23T06:01:57.903Z,95137.94
2018-02-23T06:04:27.064Z,95128.00
2018-02-23T06:06:56.228Z,95135.95
2018-02-23T06:09:25.358Z,95140.91
2018-02-23T06:11:54.530Z,95143.44
2018-02-23T06:14:23.767Z,95141.59
2018-02-23T06:16:52.952Z,95145.98
2018-02-23T06:19:27.402Z,95147.53
2018-02-23T06:21:56.588Z,95151.77
2018-02-23T06:24:25.784Z,95153.20
2018-02-23T06:26:54.956Z,95151.05
2018-02-23T06:29:24.134Z,95154.45
2018-02-23T06:31:53.309Z,95157.59
2018-02-23T06:34:22.498Z,95151.30
2018-02-23T06:36:51.851Z,95159.04
2018-02-23T06:39:21.069Z,95162.59
2018-02-23T06:41:51.223Z,95161.51
2018-02-23T06:44:20.395Z,95160.09
2018-02-23T06:46:55.209Z,95154.03
2018-02-23T06:49:24.376Z,95155.47
2018-02-23T06:51:53.572Z,95154.14
2018-02-23T06:55:06.491Z,95154.05
2018-02-23T06:57:35.639Z,95154.88
2018-02-23T07:00:04.880Z,95157.13
2018-02-23T07:02:34.135Z,95162.05
2018-02-23T07:05:03.432Z,95154.73
2018-02-23T07:07:32.595Z,95150.56
2018-02-23T07:10:01.772Z,95153.74
2018-02-23T07:12:30.975Z,95149.83
2018-02-23T07:15:00.185Z,95151.99
2018-02-23T07:17:29.402Z,95148.59
2018-02-23T07:19:58.570Z,95151.64
2018-02-23T07:22:27.768Z,95157.55
2018-02-23T07:24:56.953Z,95158.08
2018-02-23T07:27:26.112Z,95157.30
2018-02-23T07:29:55.310Z,95154.73
2018-02-23T07:32:24.495Z,95156.68
2018-02-23T07:34:53.717Z,95153.61
2018-02-23T07:37:22.900Z,95156.44
2018-02-23T07:39:52.043Z,95163.23
2018-02-23T07:42:21.226Z,95173.59
2018-02-23T07:44:50.421Z,95179.08
2018-02-23T07:47:19.700Z,95178.36
2018-02-23T07:49:48.893Z,95176.94
2018-02-23T07:52:18.316Z,95172.59
2018-02-23T07:54:47.520Z,95172.39
2018-02-23T07:57:16.666Z,95180.23
2018-02-23T07:59:46.271Z,95181.37
2018-02-23T08:02:15.472Z,95184.06
2018-02-23T08:04:44.678Z,95184.80
2018-02-23T08:07:13.839Z,95184.89
2018-02-23T08:12:18.211Z,95186.94
2018-02-23T08:14:47.455Z,95190.73
2018-02-23T08:17:16.614Z,95192.09
2018-02-23T08:19:45.797Z,95187.16
2018-02-23T08:22:15.028Z,95185.52
2018-02-23T08:24:44.806Z,95182.84
2018-02-23T08:27:14.587Z,95184.31
2018-02-23T08:29:43.782Z,95181.30
2018-02-23T08:32:12.967Z,95187.67
2018-02-23T08:34:43.078Z,95186.09
2018-02-23T08:37:12.565Z,95190.83
2018-02-23T08:39:41.916Z,95189.38
2018-02-23T08:42:11.127Z,95197.20
2018-02-23T08:44:48.234Z,95189.22
2018-02-23T08:47:17.439Z,95201.48
2018-02-23T08:49:46.594Z,95202.11
2018-02-23T08:52:15.755Z,95199.42
2018-02-23T08:54:44.940Z,95198.34
2018-02-23T08:57:14.100Z,95197.22
2018-02-23T08:59:43.283Z,95204.44
2018-02-23T09:02:12.447Z,95205.38
2018-02-23T09:04:41.670Z,95212.67
2018-02-23T09:07:10.803Z,95212.51
2018-02-23T09:09:39.987Z,95203.29
2018-02-23T09:12:09.172Z,95205.86
2018-02-23T09:14:38.367Z,95211.73
2018-02-23T09:17:07.550Z,95207.16
2018-02-23T09:19:45.423Z,95208.89
2018-02-23T09:22:14.986Z,95214.40
2018-02-23T09:24:44.172Z,95217.51
2018-02-23T09:27:13.336Z,95219.70
2018-02-23T09:29:42.475Z,95220.59
2018-02-23T09:32:27.002Z,95224.23
2018-02-23T09:34:56.163Z,95227.98
2018-02-23T09:37:29.119Z,95221.08
2018-02-23T09:39:58.304Z,95222.81
2018-02-23T09:42:27.506Z,95219.20
2018-02-23T09:44:56.746Z,95213.38
2018-02-23T09:47:31.930Z,95215.02
2018-02-23T09:50:01.094Z,95224.30
2018-02-23T09:52:30.380Z,95224.71
2018-02-23T09:54:59.593Z,95217.41
2018-02-23T09:57:30.083Z,95220.50
2018-02-23T09:59:59.255Z,95209.84
2018-02-23T10:02:28.428Z,95212.88
2018-02-23T10:04:57.650Z,95212.27
2018-02-23T10:07:27.182Z,95212.33
2018-02-23T10:09:56.331Z,95214.16
2018-02-23T10:12:25.612Z,95218.72
2018-02-23T10:14:54.833Z,95217.85
2018-02-23T10:17:23.999Z,95219.67
2018-02-23T10:19:53.147Z,95211.20
2018-02-23T10:22:22.357Z,95221.36
2018-02-23T10:27:26.991Z,95222.39
2018-02-23T10:29:59.346Z,95221.64
2018-02-23T10:32:28.519Z,95226.17
2018-02-23T10:34:57.719Z,95219.44
2018-02-23T10:37:26.862Z,95219.60
2018-02-23T10:39:56.068Z,95222.91
2018-02-23T10:42:25.272Z,95224.84
2018-02-23T10:44:54.495Z,95225.47
2018-02-23T10:47:23.650Z,95235.27
2018-02-23T10:49:52.826Z,95231.59
2018-02-23T10:52:22.029Z,95236.16
2018-02-23T10:54:51.207Z,95236.81
2018-02-23T10:57:20.402Z,95238.68
2018-02-23T10:59:50.492Z,95238.78
2018-02-23T11:02:19.743Z,95241.64
2018-02-23T11:04:48.948Z,95235.23
2018-02-23T11:07:18.156Z,95235.52
2018-02-23T11:09:47.307Z,95239.98
2018-02-23T11:12:17.063Z,95238.67
2018-02-23T11:14:46.224Z,95222.75
2018-02-23T11:17:16.395Z,95221.60
2018-02-23T11:19:45.577Z,95212.52
2018-02-23T11:22:15.984Z,95226.84
2018-02-23T11:24:45.261Z,95223.30
2018-02-23T11:27:15.583Z,95221.04
2018-02-23T11:29:44.716Z,95212.92
2018-02-23T11:32:15.231Z,95209.73
2018-02-23T11:37:19.765Z,95205.05
2018-02-23T11:39:48.926Z,95204.59
2018-02-23T11:42:18.115Z,95207.33
2018-02-23T11:44:47.395Z,95203.17
2018-02-23T11:47:17.148Z,95213.75
2018-02-23T11:49:46.299Z,95211.55
2018-02-23T11:52:16.430Z,95216.52
2018-02-23T11:54:45.634Z,95213.59
2018-02-23T11:57:16.537Z,95219.19
2018-02-23T11:59:45.692Z,95234.75
2018-02-23T12:02:15.806Z,95240.04
2018-02-23T12:07:20.754Z,95245.52
2018-02-23T12:09:49.895Z,95240.73
2018-02-23T12:12:19.069Z,95246.19
2018-02-23T12:17:23.434Z,95247.59
2018-02-23T12:19:53.490Z,95246.73
2018-02-23T12:22:23.311Z,95241.77
2018-02-23T12:24:52.476Z,95237.52
2018-02-23T12:27:21.648Z,95234.86
2018-02-23T12:29:53.354Z,95223.16
2018-02-23T12:32:22.528Z,95221.64
2018-02-23T12:34:51.711Z,95218.46
2018-02-23T12:37:20.898Z,95218.67
2018-02-23T12:39:50.101Z,95225.56
2018-02-23T12:42:19.303Z,95234.84
2018-02-23T12:44:48.513Z,95234.81
2018-02-23T12:47:17.713Z,95231.58
2018-02-23T12:49:47.309Z,95226.06
2018-02-23T12:52:16.450Z,95233.52
2018-02-23T12:54:46.753Z,95236.14
2018-02-23T12:57:16.261Z,95234.74
2018-02-23T12:59:46.700Z,95237.52
2018-02-23T13:02:15.847Z,95243.25
2018-02-23T13:04:46.443Z,95242.39
2018-02-23T13:07:15.624Z,95240.11
2018-02-23T13:12:20.537Z,95238.62
2018-02-23T13:14:55.290Z,95243.20
2018-02-23T13:17:24.439Z,95235.49
2018-02-23T13:19:53.594Z,95233.98
2018-02-23T13:22:22.747Z,95241.77
2018-02-23T13:24:52.096Z,95234.80
2018-02-23T13:27:21.282Z,95233.66
2018-02-23T13:29:50.419Z,95234.28
2018-02-23T13:32:19.577Z,95228.86
2018-02-23T13:34:48.731Z,95227.42
2018-02-23T13:37:17.997Z,95231.27
2018-02-23T13:42:28.353Z,95233.37
2018-02-23T13:44:57.614Z,95229.63
2018-02-23T13:47:26.775Z,95235.78
2018-02-23T13:49:55.952Z,95230.87
2018-02-23T13:52:25.133Z,95242.00
2018-02-23T13:54:54.333Z,95244.87
2018-02-23T13:57:23.519Z,95243.00
2018-02-23T14:00:00.774Z,95246.28
2018-02-23T14:02:29.931Z,95236.90
2018-02-23T14:04:59.108Z,95242.25
2018-02-23T14:07:33.164Z,95240.34
2018-02-23T14:10:02.356Z,95250.77
2018-02-23T14:12:31.574Z,95252.08
2018-02-23T14:15:00.779Z,95255.39
2018-02-23T14:17:29.955Z,95252.61
2018-02-23T14:19:59.109Z,95249.55
2018-02-23T14:22:28.270Z,95253.22
2018-02-23T14:24:57.436Z,95252.33
2018-02-23T14:27:26.604Z,95242.27
2018-02-23T14:32:31.003Z,95239.43
2018-02-23T14:35:00.168Z,95233.12
2018-02-23T14:37:29.363Z,95230.41
2018-02-23T14:39:58.526Z,95229.02
2018-02-23T14:42:27.684Z,95228.87
2018-02-23T14:44:56.863Z,95229.11
2018-02-23T14:47:26.063Z,95228.42
2018-02-23T14:52:39.346Z,95225.75
2018-02-23T14:55:14.036Z,95216.48
2018-02-23T14:57:47.388Z,95206.03
2018-02-23T15:00:20.927Z,95211.76
2018-02-23T15:02:54.873Z,95206.52
2018-02-23T15:05:30.831Z,95201.77
2018-02-23T15:08:03.776Z,95200.31
2018-02-23T15:10:37.363Z,95198.87
2018-02-23T15:13:06.607Z,95202.94
2018-02-23T15:15:35.767Z,95202.30
2018-02-23T15:18:04.951Z,95199.86
2018-02-23T15:20:34.117Z,95202.33
2018-02-23T15:23:03.284Z,95203.59
2018-02-23T15:25:32.459Z,95199.95
2018-02-23T15:28:01.605Z,95196.61
2018-02-23T15:33:13.444Z,95210.89
2018-02-23T15:35:43.149Z,95211.62
2018-02-23T15:38:12.308Z,95214.23
2018-02-23T15:40:41.529Z,95214.77
2018-02-23T15:43:10.701Z,95225.08
2018-02-23T15:45:39.912Z,95224.58
2018-02-23T15:48:22.123Z,95221.77
2018-02-23T15:53:44.940Z,95233.64
2018-02-23T15:56:14.229Z,95240.51
2018-02-23T15:58:45.342Z,95238.88
2018-02-23T16:01:14.591Z,95243.67
2018-02-23T16:03:43.767Z,95243.05
2018-02-23T16:06:13.014Z,95246.95
2018-02-23T16:08:46.691Z,95243.27
2018-02-23T16:11:15.876Z,95245.89
2018-02-23T16:13:45.058Z,95250.92
2018-02-23T16:16:14.291Z,95250.97
2018-02-23T16:18:43.465Z,95245.69
2018-02-23T16:21:12.637Z,95249.02
2018-02-23T16:23:41.783Z,95251.25
2018-02-23T16:26:10.986Z,95253.20
2018-02-23T16:28:40.577Z,95253.86
2018-02-23T16:31:09.756Z,95250.68
2018-02-23T16:33:38.945Z,95264.30
2018-02-23T16:36:08.136Z,95264.58
2018-02-23T16:38:37.331Z,95262.27
2018-02-23T16:41:06.475Z,95250.75
2018-02-23T16:43:35.672Z,95254.25
2018-02-23T16:46:04.839Z,95250.68
2018-02-23T16:48:34.008Z,95252.84
2018-02-23T16:51:03.156Z,95258.40
2018-02-23T16:53:32.342Z,95263.98
2018-02-23T16:56:01.958Z,95253.59
2018-02-23T16:58:31.098Z,95255.96
2018-02-23T17:01:03.611Z,95265.13
2018-02-23T17:03:32.982Z,95266.33
2018-02-23T17:08:38.679Z,95272.44
2018-02-23T17:11:07.847Z,95275.72
2018-02-23T17:13:37.017Z,95274.94
2018-02-23T17:16:06.212Z,95278.90
2018-02-23T17:18:36.391Z,95277.45
2018-02-23T17:21:05.545Z,95277.85
2018-02-23T17:23:34.730Z,95274.52
2018-02-23T17:26:03.906Z,95281.76
2018-02-23T17:28:33.127Z,95279.93
2018-02-23T17:31:02.287Z,95283.39
2018-02-23T17:33:31.447Z,95280.83
2018-02-23T17:36:01.695Z,95275.01
2018-02-23T17:38:30.883Z,95274.42
2018-02-23T17:41:00.029Z,95274.65
2018-02-23T17:43:29.204Z,95266.39
2018-02-23T17:45:58.375Z,95270.18
2018-02-23T17:48:28.251Z,95263.55
2018-02-23T17:50:57.417Z,95263.84
2018-02-23T17:53:26.634Z,95265.17
2018-02-23T17:55:55.855Z,95269.05
2018-02-23T17:58:25.032Z,95270.33
2018-02-23T18:00:54.226Z,95271.88
2018-02-23T18:03:23.396Z,95267.14
2018-02-23T18:05:52.587Z,95274.05
2018-02-23T18:08:21.768Z,95277.30
2018-02-23T18:10:50.933Z,95272.04
2018-02-23T18:16:04.504Z,95279.99
2018-02-23T18:18:33.884Z,95282.36
2018-02-23T18:21:03.028Z,95273.88
2018-02-23T18:23:32.182Z,95277.67
2018-02-23T18:26:01.344Z,95274.38
2018-02-23T18:28:30.551Z,95276.27
2018-02-23T18:30:59.715Z,95282.23
2018-02-23T18:33:29.000Z,95279.33
2018-02-23T18:35:58.192Z,95282.27
2018-02-23T18:38:27.467Z,95278.59
2018-02-23T18:46:07.156Z,95292.03
2018-02-23T18:48:36.341Z,95290.74
2018-02-23T18:51:05.547Z,95291.00
2018-02-23T18:53:34.752Z,95292.31
2018-02-23T18:56:04.971Z,95294.64
2018-02-23T18:58:34.427Z,95298.42
2018-02-23T19:01:03.603Z,95293.56
2018-02-23T19:03:33.255Z,95297.66
2018-02-23T19:06:02.650Z,95292.55
2018-02-23T19:08:31.880Z,95296.77
2018-02-23T19:11:02.031Z,95284.95
2018-02-23T19:13:31.676Z,95286.12
2018-02-23T19:18:37.976Z,95293.83
2018-02-23T19:21:07.379Z,95299.47
2018-02-23T19:23:36.989Z,95297.71
2018-02-23T19:26:06.641Z,95298.63
2018-02-23T19:28:36.213Z,95296.89
2018-02-23T19:31:05.399Z,95293.14
2018-02-23T19:33:34.615Z,95298.09
2018-02-23T19:36:04.244Z,95294.09
2018-02-23T19:38:33.534Z,95299.56
2018-02-23T19:41:02.720Z,95304.78
2018-02-23T19:43:32.074Z,95302.84
2018-02-23T19:46:01.336Z,95299.28
2018-02-23T19:48:31.338Z,95307.16
2018-02-23T19:51:00.585Z,95306.84
2018-02-23T19:53:29.863Z,95301.95
2018-02-23T19:55:59.384Z,95303.53
2018-02-23T19:58:31.583Z,95308.80
2018-02-23T20:01:01.494Z,95306.27
2018-02-23T20:03:31.121Z,95307.17
2018-02-23T20:06:00.641Z,95304.99
2018-02-23T20:08:29.926Z,95309.61
2018-02-23T20:10:59.375Z,95311.09
2018-02-23T20:13:29.873Z,95316.65
2018-02-23T20:15:59.077Z,95313.69
2018-02-23T20:21:04.384Z,95311.41
2018-02-23T20:23:33.607Z,95311.58
2018-02-23T20:26:02.975Z,95310.64
2018-02-23T20:28:32.144Z,95311.25
2018-02-23T20:31:01.928Z,95310.52
2018-02-23T20:33:32.046Z,95307.74
2018-02-23T20:36:06.129Z,95312.59
2018-02-23T20:41:23.003Z,95308.89
2018-02-23T20:43:53.099Z,95311.16
2018-02-23T20:46:22.424Z,95305.97
2018-02-23T20:48:52.529Z,95312.03
2018-02-23T20:51:23.855Z,95308.36
2018-02-23T20:53:53.335Z,95305.73
2018-02-23T20:56:23.155Z,95316.59
2018-02-23T20:58:54.494Z,95303.40
2018-02-23T21:01:24.177Z,95307.09
2018-02-23T21:03:53.501Z,95306.47
2018-02-23T21:09:03.558Z,95300.31
2018-02-23T21:11:34.474Z,95299.42
2018-02-23T21:14:03.848Z,95298.59
2018-02-23T21:16:33.253Z,95299.05
2018-02-23T21:19:03.703Z,95297.02
2018-02-23T21:21:32.898Z,95299.17
2018-02-23T21:24:02.135Z,95299.19
2018-02-23T21:26:31.595Z,95304.27
2018-02-23T21:29:00.775Z,95305.13
2018-02-23T21:31:29.938Z,95305.45
2018-02-23T21:33:59.096Z,95304.36
2018-02-23T21:36:28.426Z,95307.77
2018-02-23T21:38:57.795Z,95310.33
2018-02-23T21:44:06.454Z,95303.44
2018-02-23T21:46:36.115Z,95301.41
2018-02-23T21:49:05.584Z,95297.56
2018-02-23T21:51:36.174Z,95294.77
2018-02-23T21:54:05.717Z,95303.73
2018-02-23T21:56:34.928Z,95296.13
2018-02-23T21:59:04.560Z,95294.66
2018-02-23T22:01:33.991Z,95292.31
2018-02-23T22:04:03.308Z,95298.42
2018-02-23T22:06:32.628Z,95307.73
2018-02-23T22:09:01.997Z,95302.70
2018-02-23T22:11:31.855Z,95300.83
2018-02-23T22:14:01.027Z,95299.80
2018-02-23T22:16:30.202Z,95305.89
2018-02-23T22:18:59.372Z,95313.06
2018-02-23T22:21:28.673Z,95310.09
2018-02-23T22:23:57.862Z,95319.50
2018-02-23T22:26:27.139Z,95310.84
2018-02-23T22:28:56.394Z,95313.39
2018-02-23T22:31:25.607Z,95307.31
2018-02-23T22:33:54.883Z,95315.34
2018-02-23T22:36:24.343Z,95309.59
2018-02-23T22:38:53.680Z,95302.97
2018-02-23T22:41:22.961Z,95308.33
2018-02-23T22:43:52.134Z,95302.97
2018-02-23T22:46:21.395Z,95316.22
2018-02-23T22:48:50.740Z,95313.63
2018-02-23T22:51:20.803Z,95306.95
2018-02-23T22:53:51.410Z,95320.87
2018-02-23T22:56:20.595Z,95308.53
2018-02-23T22:58:50.229Z,95306.22
2018-02-23T23:01:19.627Z,95303.12
2018-02-23T23:03:48.920Z,95308.66
2018-02-23T23:06:18.390Z,95305.14
2018-02-23T23:08:48.347Z,95310.70
2018-02-23T23:11:21.848Z,95309.00
2018-02-23T23:13:51.294Z,95311.72
2018-02-23T23:16:20.526Z,95314.37
2018-02-23T23:18:49.719Z,95312.77
2018-02-23T23:21:18.905Z,95317.19
2018-02-23T23:23:48.065Z,95311.78
2018-02-23T23:28:56.536Z,95313.52
2018-02-23T23:31:25.707Z,95319.60
2018-02-23T23:33:54.852Z,95316.64
2018-02-23T23:36:24.012Z,95307.49
2018-02-23T23:38:54.111Z,95320.92
2018-02-23T23:41:23.283Z,95315.38
2018-02-23T23:43:52.504Z,95314.92
2018-02-23T23:46:21.676Z,95324.95
2018-02-23T23:48:50.839Z,95328.38
2018-02-23T23:51:20.011Z,95327.79
2018-02-23T23:53:49.891Z,95318.67
2018-02-23T23:56:19.062Z,95330.03
2018-02-23T23:58:48.239Z,95331.79
